createdAt,value
2023-11-25T00:01:06.374Z,4.90
2023-11-25T00:03:34.124Z,5.00
2023-11-25T00:06:00.758Z,5.00
2023-11-25T00:08:28.339Z,5.00
2023-11-25T00:10:56.847Z,5.00
2023-11-25T00:13:23.865Z,5.00
2023-11-25T00:15:52.124Z,5.00
2023-11-25T00:18:19.212Z,5.00
2023-11-25T00:20:47.866Z,4.90
2023-11-25T00:23:14.970Z,4.90
2023-11-25T00:25:42.081Z,4.90
2023-11-25T00:28:11.936Z,4.80
2023-11-25T00:30:39.405Z,4.70
2023-11-25T00:33:07.663Z,4.80
2023-11-25T00:35:34.802Z,4.80
2023-11-25T00:38:01.794Z,4.80
2023-11-25T00:40:29.651Z,4.70
2023-11-25T00:42:58.339Z,4.70
2023-11-25T00:45:27.796Z,4.70
2023-11-25T00:47:58.035Z,4.60
2023-11-25T00:50:26.414Z,4.50
2023-11-25T00:52:53.215Z,4.50
2023-11-25T00:55:20.102Z,4.60
2023-11-25T00:57:47.234Z,4.50
2023-11-25T01:00:17.793Z,4.50
2023-11-25T01:02:45.809Z,4.50
2023-11-25T01:05:13.293Z,4.50
2023-11-25T01:07:40.035Z,4.50
2023-11-25T01:10:07.895Z,4.50
2023-11-25T01:12:36.215Z,4.50
2023-11-25T01:15:05.214Z,4.40
2023-11-25T01:17:32.088Z,4.40
2023-11-25T01:19:59.389Z,4.40
2023-11-25T01:22:26.876Z,4.40
2023-11-25T01:24:53.604Z,4.40
2023-11-25T01:27:23.122Z,4.50
2023-11-25T01:29:51.155Z,4.40
2023-11-25T01:32:17.917Z,4.40
2023-11-25T01:34:45.328Z,4.30
2023-11-25T01:37:16.525Z,4.30
2023-11-25T01:39:43.475Z,4.40
2023-11-25T01:42:10.386Z,4.40
2023-11-25T01:44:36.893Z,4.30
2023-11-25T01:47:03.688Z,4.30
2023-11-25T01:49:30.996Z,4.30
2023-11-25T01:51:57.999Z,4.30
2023-11-25T01:54:25.453Z,4.30
2023-11-25T01:56:55.403Z,4.30
2023-11-25T01:59:24.004Z,4.30
2023-11-25T02:01:50.983Z,4.30
2023-11-25T02:04:18.273Z,4.30
2023-11-25T02:06:45.042Z,4.20
2023-11-25T02:09:12.613Z,4.30
2023-11-25T02:11:58.563Z,4.20
2023-11-25T02:14:26.410Z,4.20
2023-11-25T02:16:54.693Z,4.30
2023-11-25T02:19:23.012Z,4.20
2023-11-25T02:21:49.700Z,4.20
2023-11-25T02:24:16.495Z,4.20
2023-11-25T02:26:44.622Z,4.30
2023-11-25T02:29:11.361Z,4.20
2023-11-25T02:31:41.419Z,4.20
2023-11-25T02:34:08.811Z,4.20
2023-11-25T02:36:35.529Z,4.20
2023-11-25T02:39:02.994Z,4.20
2023-11-25T02:41:31.062Z,4.10
2023-11-25T02:43:58.036Z,4.10
2023-11-25T02:46:25.130Z,4.20
2023-11-25T02:48:52.073Z,4.30
2023-11-25T02:51:18.914Z,4.20
2023-11-25T02:53:46.971Z,4.30
2023-11-25T02:56:16.007Z,4.30
2023-11-25T02:58:43.859Z,4.20
2023-11-25T03:01:13.107Z,4.20
2023-11-25T03:03:49.966Z,4.20
2023-11-25T03:06:23.818Z,4.20
2023-11-25T03:08:50.863Z,4.20
2023-11-25T03:11:22.355Z,4.20
2023-11-25T03:13:49.728Z,4.20
2023-11-25T03:16:17.234Z,4.20
2023-11-25T03:18:44.068Z,4.20
2023-11-25T03:21:11.221Z,4.20
2023-11-25T03:23:38.117Z,4.30
2023-11-25T03:26:06.523Z,4.20
2023-11-25T03:28:33.141Z,4.10
2023-11-25T03:31:06.411Z,4.20
2023-11-25T03:33:32.961Z,4.10
2023-11-25T03:35:59.928Z,4.00
2023-11-25T03:38:26.799Z,4.10
2023-11-25T03:40:54.323Z,4.10
2023-11-25T03:43:24.898Z,4.20
2023-11-25T03:45:51.671Z,4.10
2023-11-25T03:48:19.455Z,4.10
2023-11-25T03:50:49.179Z,4.30
2023-11-25T03:53:15.747Z,4.30
2023-11-25T03:55:48.479Z,4.30
2023-11-25T03:58:15.691Z,4.20
2023-11-25T04:00:42.754Z,4.20
2023-11-25T04:03:09.935Z,4.20
2023-11-25T04:05:36.790Z,4.20
2023-11-25T04:08:03.673Z,4.20
2023-11-25T04:10:30.409Z,4.20
2023-11-25T04:12:57.965Z,4.20
2023-11-25T04:15:24.861Z,4.10
2023-11-25T04:17:52.718Z,4.10
2023-11-25T04:20:26.234Z,4.30
2023-11-25T04:22:53.973Z,4.20
2023-11-25T04:25:21.409Z,4.20
2023-11-25T04:27:49.765Z,4.30
2023-11-25T04:30:17.589Z,4.10
2023-11-25T04:32:48.364Z,4.10
2023-11-25T04:35:15.379Z,4.10
2023-11-25T04:37:46.619Z,4.10
2023-11-25T04:40:14.822Z,4.30
2023-11-25T04:42:42.497Z,4.30
2023-11-25T04:45:16.637Z,4.20
2023-11-25T04:47:48.728Z,4.20
2023-11-25T04:50:16.210Z,4.30
2023-11-25T04:52:43.552Z,4.30
2023-11-25T04:55:11.762Z,4.40
2023-11-25T04:57:38.364Z,4.40
2023-11-25T05:00:10.051Z,4.50
2023-11-25T05:02:42.866Z,4.50
2023-11-25T05:05:09.922Z,4.40
2023-11-25T05:07:37.113Z,4.60
2023-11-25T05:10:06.304Z,4.70
2023-11-25T05:12:33.185Z,4.60
2023-11-25T05:14:59.984Z,4.60
2023-11-25T05:17:28.516Z,4.70
2023-11-25T05:19:55.209Z,4.60
2023-11-25T05:22:22.796Z,4.60
2023-11-25T05:24:49.413Z,4.60
2023-11-25T05:27:16.043Z,4.50
2023-11-25T05:29:43.169Z,4.50
2023-11-25T05:32:10.539Z,4.40
2023-11-25T05:34:37.734Z,4.50
2023-11-25T05:37:04.876Z,4.50
2023-11-25T05:39:31.866Z,4.50
2023-11-25T05:41:58.979Z,4.60
2023-11-25T05:44:26.990Z,4.70
2023-11-25T05:46:58.068Z,4.80
2023-11-25T05:49:24.705Z,4.80
2023-11-25T05:51:52.372Z,4.80
2023-11-25T05:54:19.514Z,4.80
2023-11-25T05:56:47.240Z,4.90
2023-11-25T05:59:14.418Z,4.80
2023-11-25T06:01:42.831Z,4.70
2023-11-25T06:04:09.497Z,4.70
2023-11-25T06:06:36.547Z,4.90
2023-11-25T06:09:03.817Z,4.90
2023-11-25T06:11:30.817Z,4.80
2023-11-25T06:13:57.830Z,4.80
2023-11-25T06:16:25.690Z,4.70
2023-11-25T06:18:55.871Z,4.80
2023-11-25T06:21:23.049Z,4.80
2023-11-25T06:23:50.233Z,4.70
2023-11-25T06:26:16.899Z,4.70
2023-11-25T06:28:46.550Z,4.60
2023-11-25T06:31:13.773Z,4.50
2023-11-25T06:33:42.185Z,4.50
2023-11-25T06:36:09.878Z,4.60
2023-11-25T06:38:38.416Z,4.50
2023-11-25T06:41:05.409Z,4.50
2023-11-25T06:43:32.901Z,4.40
2023-11-25T06:46:00.803Z,4.30
2023-11-25T06:48:30.230Z,4.30
2023-11-25T06:50:59.282Z,4.40
2023-11-25T06:53:25.918Z,4.40
2023-11-25T06:55:52.635Z,4.40
2023-11-25T06:58:19.676Z,4.40
2023-11-25T07:00:46.400Z,4.50
2023-11-25T07:03:13.391Z,4.50
2023-11-25T07:05:40.232Z,4.50
2023-11-25T07:08:07.340Z,4.60
2023-11-25T07:10:35.870Z,4.60
2023-11-25T07:13:03.939Z,4.60
2023-11-25T07:15:30.992Z,4.60
2023-11-25T07:17:58.292Z,4.60
2023-11-25T07:20:26.864Z,4.70
2023-11-25T07:22:53.569Z,4.80
2023-11-25T07:25:20.604Z,4.80
2023-11-25T07:27:48.536Z,4.80
2023-11-25T07:30:16.889Z,4.90
2023-11-25T07:32:45.641Z,4.90
2023-11-25T07:35:14.198Z,4.90
2023-11-25T07:37:41.611Z,4.90
2023-11-25T07:40:10.942Z,5.00
2023-11-25T07:42:40.759Z,5.00
2023-11-25T07:45:10.463Z,4.90
2023-11-25T07:47:38.335Z,4.90
2023-11-25T07:50:06.260Z,4.90
2023-11-25T07:52:32.999Z,4.90
2023-11-25T07:54:59.528Z,5.00
2023-11-25T07:57:27.819Z,5.10
2023-11-25T07:59:54.549Z,5.10
2023-11-25T08:02:21.470Z,5.10
2023-11-25T08:04:48.517Z,5.10
2023-11-25T08:07:18.245Z,5.10
2023-11-25T08:09:45.033Z,5.10
2023-11-25T08:12:13.107Z,5.10
2023-11-25T08:14:39.701Z,5.10
2023-11-25T08:17:06.488Z,5.10
2023-11-25T08:19:33.782Z,5.10
2023-11-25T08:22:00.586Z,5.00
2023-11-25T08:24:27.649Z,5.10
2023-11-25T08:26:54.542Z,5.00
2023-11-25T08:29:21.458Z,5.10
2023-11-25T08:31:48.244Z,5.10
2023-11-25T08:34:16.052Z,5.10
2023-11-25T08:37:10.020Z,5.20
2023-11-25T08:39:37.701Z,5.20
2023-11-25T08:42:10.017Z,5.20
2023-11-25T08:44:37.604Z,5.20
2023-11-25T08:47:04.394Z,5.20
2023-11-25T08:49:31.317Z,5.20
2023-11-25T08:51:58.353Z,5.20
2023-11-25T08:54:25.065Z,5.20
2023-11-25T08:56:53.633Z,5.10
2023-11-25T08:59:22.330Z,5.20
2023-11-25T09:01:49.784Z,5.20
2023-11-25T09:04:23.904Z,5.20
2023-11-25T09:06:51.452Z,5.20
2023-11-25T09:09:20.514Z,5.30
2023-11-25T09:11:49.541Z,5.30
2023-11-25T09:14:18.340Z,5.40
2023-11-25T09:16:45.098Z,5.60
2023-11-25T09:19:12.715Z,5.80
2023-11-25T09:21:42.759Z,6.00
2023-11-25T09:24:09.491Z,6.20
2023-11-25T09:26:36.629Z,6.20
2023-11-25T09:29:04.149Z,6.10
2023-11-25T09:31:30.777Z,6.10
2023-11-25T09:33:58.131Z,6.20
2023-11-25T09:36:26.191Z,6.10
2023-11-25T09:38:53.140Z,6.00
2023-11-25T09:41:21.981Z,6.00
2023-11-25T09:43:49.477Z,6.00
2023-11-25T09:46:17.604Z,6.00
2023-11-25T09:48:44.983Z,5.90
2023-11-25T09:51:15.263Z,6.00
2023-11-25T09:53:43.789Z,6.10
2023-11-25T09:56:13.024Z,6.10
2023-11-25T09:58:40.239Z,6.10
2023-11-25T10:01:07.843Z,6.10
2023-11-25T10:03:36.071Z,6.30
2023-11-25T10:06:03.651Z,6.40
2023-11-25T10:08:35.276Z,6.40
2023-11-25T10:11:07.530Z,6.40
2023-11-25T10:13:40.980Z,6.40
2023-11-25T10:16:08.437Z,6.40
2023-11-25T10:18:39.266Z,6.40
2023-11-25T10:21:09.290Z,6.50
2023-11-25T10:23:37.300Z,6.40
2023-11-25T10:26:05.400Z,6.40
2023-11-25T10:28:37.386Z,6.30
2023-11-25T10:31:06.893Z,6.40
2023-11-25T10:33:35.389Z,6.40
2023-11-25T10:36:02.989Z,6.50
2023-11-25T10:38:31.138Z,6.50
2023-11-25T10:41:06.760Z,6.50
2023-11-25T10:43:34.524Z,6.60
2023-11-25T10:46:09.775Z,6.60
2023-11-25T10:48:40.961Z,6.60
2023-11-25T10:51:09.427Z,6.80
2023-11-25T10:53:38.251Z,7.00
2023-11-25T10:56:05.787Z,7.00
2023-11-25T10:58:33.064Z,7.10
2023-11-25T11:01:01.178Z,7.00
2023-11-25T11:03:50.889Z,7.00
2023-11-25T11:06:22.118Z,6.90
2023-11-25T11:08:50.262Z,6.80
2023-11-25T11:11:19.410Z,6.70
2023-11-25T11:14:03.991Z,6.70
2023-11-25T11:16:33.993Z,6.80
2023-11-25T11:19:01.112Z,6.80
2023-11-25T11:21:36.723Z,6.90
2023-11-25T11:24:05.521Z,6.90
2023-11-25T11:26:39.461Z,6.90
2023-11-25T11:29:30.163Z,6.90
2023-11-25T11:31:59.586Z,7.00
2023-11-25T11:34:28.965Z,7.10
2023-11-25T11:36:56.406Z,7.10
2023-11-25T11:39:33.429Z,7.00
2023-11-25T11:42:23.187Z,7.00
2023-11-25T11:45:21.132Z,6.90
2023-11-25T11:47:57.539Z,6.90
2023-11-25T11:50:29.106Z,7.00
2023-11-25T11:53:02.752Z,6.90
2023-11-25T11:55:42.979Z,6.80
2023-11-25T11:58:17.060Z,6.80
2023-11-25T12:01:06.554Z,6.70
2023-11-25T12:03:35.171Z,6.80
2023-11-25T12:06:02.185Z,6.80
2023-11-25T12:08:29.122Z,6.80
2023-11-25T12:10:56.352Z,6.90
2023-11-25T12:13:25.937Z,7.00
2023-11-25T12:15:54.679Z,7.00
2023-11-25T12:18:21.971Z,7.10
2023-11-25T12:20:48.530Z,7.20
2023-11-25T12:23:15.718Z,7.20
2023-11-25T12:25:45.303Z,7.10
2023-11-25T12:28:12.628Z,7.10
2023-11-25T12:30:41.365Z,7.20
2023-11-25T12:33:09.278Z,7.70
2023-11-25T12:35:44.660Z,7.90
2023-11-25T12:38:15.898Z,8.10
2023-11-25T12:40:45.730Z,8.10
2023-11-25T12:43:12.787Z,8.00
2023-11-25T12:45:44.760Z,7.80
2023-11-25T12:48:13.752Z,7.70
2023-11-25T12:51:05.332Z,7.40
2023-11-25T12:53:32.837Z,7.60
2023-11-25T12:56:01.407Z,7.70
2023-11-25T12:58:28.221Z,7.80
2023-11-25T13:00:58.860Z,7.60
2023-11-25T13:03:35.984Z,7.70
2023-11-25T13:06:05.877Z,7.90
2023-11-25T13:08:37.787Z,8.10
2023-11-25T13:11:06.486Z,8.30
2023-11-25T13:13:34.021Z,8.30
2023-11-25T13:16:01.483Z,8.30
2023-11-25T13:18:29.079Z,8.00
2023-11-25T13:20:56.908Z,8.30
2023-11-25T13:23:24.042Z,8.10
2023-11-25T13:25:53.371Z,8.00
2023-11-25T13:28:21.615Z,7.80
2023-11-25T13:30:48.502Z,7.60
2023-11-25T13:33:17.234Z,7.50
2023-11-25T13:35:45.165Z,7.60
2023-11-25T13:38:13.580Z,7.60
2023-11-25T13:40:40.701Z,7.60
2023-11-25T13:43:14.483Z,7.60
2023-11-25T13:45:42.642Z,7.50
2023-11-25T13:48:11.754Z,7.50
2023-11-25T13:50:39.158Z,7.70
2023-11-25T13:53:06.880Z,7.70
2023-11-25T13:55:39.186Z,7.60
2023-11-25T13:58:08.227Z,7.50
2023-11-25T14:00:38.417Z,7.40
2023-11-25T14:03:10.843Z,7.40
2023-11-25T14:05:44.458Z,7.40
2023-11-25T14:08:19.190Z,7.50
2023-11-25T14:10:46.674Z,7.70
2023-11-25T14:13:15.098Z,7.80
2023-11-25T14:15:42.498Z,7.90
2023-11-25T14:18:11.595Z,7.70
2023-11-25T14:20:38.458Z,7.80
2023-11-25T14:23:06.531Z,7.80
2023-11-25T14:25:34.583Z,7.70
2023-11-25T14:28:02.757Z,7.60
2023-11-25T14:30:31.639Z,7.50
2023-11-25T14:32:58.793Z,7.50
2023-11-25T14:35:25.845Z,7.60
2023-11-25T14:37:55.262Z,7.60
2023-11-25T14:40:25.144Z,7.60
2023-11-25T14:42:51.925Z,7.50
2023-11-25T14:45:19.054Z,7.40
2023-11-25T14:47:46.355Z,7.30
2023-11-25T14:50:15.623Z,7.20
2023-11-25T14:52:42.488Z,7.10
2023-11-25T14:55:10.030Z,7.10
2023-11-25T14:57:37.437Z,7.00
2023-11-25T15:00:09.568Z,7.00
2023-11-25T15:02:37.244Z,7.00
2023-11-25T15:05:04.943Z,7.00
2023-11-25T15:07:31.645Z,6.90
2023-11-25T15:09:59.031Z,6.90
2023-11-25T15:12:25.659Z,6.80
2023-11-25T15:14:55.467Z,6.80
2023-11-25T15:17:23.739Z,6.80
2023-11-25T15:19:50.915Z,6.80
2023-11-25T15:22:17.635Z,6.80
2023-11-25T15:24:44.723Z,6.70
2023-11-25T15:27:13.999Z,6.60
2023-11-25T15:29:40.756Z,6.60
2023-11-25T15:32:08.013Z,6.60
2023-11-25T15:34:35.079Z,6.60
2023-11-25T15:37:01.705Z,6.60
2023-11-25T15:39:28.868Z,6.70
2023-11-25T15:41:55.705Z,6.70
2023-11-25T15:44:22.622Z,6.70
2023-11-25T15:46:50.230Z,6.80
2023-11-25T15:49:17.331Z,6.80
2023-11-25T15:51:45.036Z,6.80
2023-11-25T15:54:12.298Z,6.70
2023-11-25T15:56:39.776Z,6.70
2023-11-25T15:59:07.831Z,6.70
2023-11-25T16:01:35.258Z,6.80
2023-11-25T16:04:03.874Z,6.80
2023-11-25T16:06:30.744Z,6.70
2023-11-25T16:08:57.756Z,6.70
2023-11-25T16:11:25.415Z,6.70
2023-11-25T16:13:52.086Z,6.70
2023-11-25T16:16:19.817Z,6.60
2023-11-25T16:18:46.703Z,6.60
2023-11-25T16:21:13.511Z,6.60
2023-11-25T16:23:43.143Z,6.60
2023-11-25T16:26:13.252Z,6.50
2023-11-25T16:28:41.366Z,6.50
2023-11-25T16:31:11.023Z,6.40
2023-11-25T16:33:38.309Z,6.40
2023-11-25T16:36:08.424Z,6.40
2023-11-25T16:38:36.030Z,6.30
2023-11-25T16:41:03.789Z,6.30
2023-11-25T16:43:32.001Z,6.30
2023-11-25T16:46:01.135Z,6.20
2023-11-25T16:48:35.371Z,6.20
2023-11-25T16:51:11.272Z,6.10
2023-11-25T16:53:38.436Z,6.00
2023-11-25T16:56:05.392Z,5.90
2023-11-25T16:58:32.402Z,5.90
2023-11-25T17:01:01.842Z,5.80
2023-11-25T17:03:28.782Z,5.90
2023-11-25T17:05:55.761Z,5.90
2023-11-25T17:08:22.398Z,5.90
2023-11-25T17:10:49.078Z,5.90
2023-11-25T17:13:18.068Z,5.90
2023-11-25T17:15:45.370Z,5.90
2023-11-25T17:18:12.090Z,6.00
2023-11-25T17:20:38.978Z,6.00
2023-11-25T17:23:05.547Z,6.00
2023-11-25T17:25:32.352Z,6.00
2023-11-25T17:27:59.228Z,6.00
2023-11-25T17:30:25.783Z,6.00
2023-11-25T17:32:52.671Z,6.00
2023-11-25T17:35:20.592Z,6.10
2023-11-25T17:37:47.803Z,6.00
2023-11-25T17:40:14.421Z,6.10
2023-11-25T17:42:41.427Z,6.10
2023-11-25T17:45:08.750Z,6.20
2023-11-25T17:47:35.604Z,6.20
2023-11-25T17:50:02.828Z,6.20
2023-11-25T17:52:29.416Z,6.20
2023-11-25T17:54:57.824Z,6.10
2023-11-25T17:57:24.676Z,6.20
2023-11-25T17:59:51.283Z,6.30
2023-11-25T18:02:18.107Z,6.30
2023-11-25T18:04:45.392Z,6.30
2023-11-25T18:07:12.152Z,6.30
2023-11-25T18:09:39.028Z,6.40
2023-11-25T18:12:06.660Z,6.50
2023-11-25T18:14:33.740Z,6.50
2023-11-25T18:17:01.977Z,6.50
2023-11-25T18:19:29.027Z,6.50
2023-11-25T18:21:57.069Z,6.60
2023-11-25T18:24:24.615Z,6.50
2023-11-25T18:26:51.672Z,6.50
2023-11-25T18:29:19.735Z,6.60
2023-11-25T18:31:46.320Z,6.70
2023-11-25T18:34:13.421Z,6.70
2023-11-25T18:36:41.507Z,6.70
2023-11-25T18:39:08.272Z,6.70
2023-11-25T18:41:35.434Z,6.70
2023-11-25T18:44:03.655Z,6.70
2023-11-25T18:46:30.456Z,6.70
2023-11-25T18:48:58.338Z,6.70
2023-11-25T18:51:25.129Z,6.80
2023-11-25T18:53:51.708Z,6.80
2023-11-25T18:56:18.958Z,6.70
2023-11-25T18:58:45.632Z,6.10
2023-11-25T19:01:12.413Z,5.70
2023-11-25T19:03:39.414Z,5.50
2023-11-25T19:06:06.235Z,5.40
2023-11-25T19:08:32.864Z,5.40
2023-11-25T19:10:59.719Z,5.30
2023-11-25T19:13:26.351Z,5.30
2023-11-25T19:15:52.928Z,5.30
2023-11-25T19:18:20.043Z,5.20
2023-11-25T19:20:46.603Z,5.10
2023-11-25T19:23:13.330Z,5.00
2023-11-25T19:25:40.317Z,4.90
2023-11-25T19:28:06.893Z,4.90
2023-11-25T19:30:33.649Z,4.80
2023-11-25T19:33:00.503Z,4.70
2023-11-25T19:35:27.674Z,4.70
2023-11-25T19:37:55.171Z,4.60
2023-11-25T19:40:22.682Z,4.60
2023-11-25T19:42:49.697Z,4.60
2023-11-25T19:45:16.250Z,4.60
2023-11-25T19:47:44.501Z,4.50
2023-11-25T19:50:12.790Z,4.50
2023-11-25T19:52:39.979Z,4.50
2023-11-25T19:55:07.897Z,4.40
2023-11-25T19:57:34.833Z,4.40
2023-11-25T20:00:03.871Z,4.40
2023-11-25T20:02:31.111Z,4.40
2023-11-25T20:04:58.139Z,4.30
2023-11-25T20:07:24.810Z,4.20
2023-11-25T20:09:52.314Z,4.30
2023-11-25T20:12:19.779Z,4.20
2023-11-25T20:14:47.308Z,4.20
2023-11-25T20:17:14.468Z,4.30
2023-11-25T20:19:41.121Z,4.30
2023-11-25T20:22:09.428Z,4.30
2023-11-25T20:24:36.249Z,4.30
2023-11-25T20:27:03.253Z,4.30
2023-11-25T20:29:29.846Z,4.20
2023-11-25T20:31:57.017Z,4.10
2023-11-25T20:34:25.067Z,4.20
2023-11-25T20:36:51.866Z,4.20
2023-11-25T20:39:19.014Z,4.20
2023-11-25T20:41:45.778Z,4.10
2023-11-25T20:44:12.447Z,4.10
2023-11-25T20:46:39.652Z,4.10
2023-11-25T20:49:06.343Z,4.10
2023-11-25T20:51:36.163Z,4.10
2023-11-25T20:54:03.713Z,4.10
2023-11-25T20:56:31.792Z,4.10
2023-11-25T20:58:58.498Z,4.20
2023-11-25T21:01:25.569Z,4.10
2023-11-25T21:03:52.249Z,4.10
2023-11-25T21:06:20.516Z,4.10
2023-11-25T21:08:47.813Z,4.10
2023-11-25T21:11:14.472Z,4.10
2023-11-25T21:13:41.590Z,4.10
2023-11-25T21:16:08.618Z,4.00
2023-11-25T21:18:37.945Z,4.10
2023-11-25T21:21:05.483Z,4.00
2023-11-25T21:23:32.644Z,4.00
2023-11-25T21:25:59.317Z,4.00
2023-11-25T21:28:26.255Z,3.90
2023-11-25T21:30:53.146Z,3.90
2023-11-25T21:33:19.850Z,3.80
2023-11-25T21:35:47.832Z,4.00
2023-11-25T21:38:14.922Z,4.00
2023-11-25T21:40:41.704Z,4.00
2023-11-25T21:43:08.304Z,4.00
2023-11-25T21:45:36.932Z,3.90
2023-11-25T21:48:03.804Z,3.90
2023-11-25T21:50:30.645Z,3.80
2023-11-25T21:52:57.987Z,3.70
2023-11-25T21:55:25.757Z,3.60
2023-11-25T21:57:52.427Z,3.60
2023-11-25T22:00:19.269Z,3.60
2023-11-25T22:02:46.165Z,3.60
2023-11-25T22:05:14.536Z,3.60
2023-11-25T22:07:41.483Z,3.60
2023-11-25T22:10:21.387Z,3.40
2023-11-25T22:12:56.614Z,3.50
2023-11-25T22:15:23.336Z,3.30
2023-11-25T22:17:49.967Z,3.30
2023-11-25T22:20:17.094Z,3.30
2023-11-25T22:22:43.740Z,3.20
2023-11-25T22:25:15.543Z,3.20
2023-11-25T22:27:42.574Z,3.30
2023-11-25T22:30:11.637Z,3.20
2023-11-25T22:32:38.280Z,3.10
2023-11-25T22:35:05.977Z,3.00
2023-11-25T22:37:32.746Z,3.10
2023-11-25T22:39:59.500Z,3.00
2023-11-25T22:42:26.869Z,3.00
2023-11-25T22:44:53.411Z,3.00
2023-11-25T22:47:20.789Z,3.00
2023-11-25T22:49:48.271Z,2.90
2023-11-25T22:52:14.921Z,2.90
2023-11-25T22:54:41.813Z,2.80
2023-11-25T22:57:09.589Z,2.70
2023-11-25T22:59:39.167Z,2.60
2023-11-25T23:02:07.410Z,2.60
2023-11-25T23:04:34.815Z,2.50
2023-11-25T23:07:01.557Z,2.50
2023-11-25T23:09:29.433Z,2.40
2023-11-25T23:11:58.589Z,2.40
2023-11-25T23:14:25.433Z,2.30
2023-11-25T23:16:52.366Z,2.30
2023-11-25T23:19:23.224Z,2.30
2023-11-25T23:21:50.123Z,2.30
2023-11-25T23:24:17.923Z,2.30
2023-11-25T23:26:44.966Z,2.30
2023-11-25T23:29:11.592Z,2.30
2023-11-25T23:31:38.324Z,2.20
2023-11-25T23:34:05.414Z,2.10
2023-11-25T23:36:32.440Z,2.00
2023-11-25T23:38:59.074Z,1.90
2023-11-25T23:41:26.122Z,2.00
2023-11-25T23:43:54.192Z,2.30
2023-11-25T23:46:21.837Z,2.40
2023-11-25T23:48:48.713Z,2.80
2023-11-25T23:51:15.278Z,3.00
2023-11-25T23:53:42.260Z,3.00
2023-11-25T23:56:09.344Z,3.00
2023-11-25T23:58:37.475Z,2.90
